Terminal Aerodrome Forecast
Issued by NWS Twin Cities, MN

Home | Current Version | Previous Version | Graphics & Text | Print | Product List | Glossary On
Versions: 1 2 3 4 5 6 7 8 9 10 11 12 13 14 15 16 17
000
FTUS43 KMPX 282339
TAFEAU
TAF
KEAU 282339Z 2900/2924 14007KT 6SM BR BKN015
     FM290300 11003KT 3SM BR OVC009
      TEMPO 2903/2906 1 1/2SM -FZDZSN OVC005
     FM290600 VRB03KT 2SM -FZDZSN BR OVC004
     FM290900 31011KT 4SM -SHSN BR OVC008
     FM291200 32016G23KT P6SM OVC012
     FM292100 32013G20KT P6SM BKN020=

USA.gov is the U.S. government's official web portal to all federal, state and local government web resources and services.